Accueil
METAR-TAF:

METAR-TAF

Aéroports :

Port Hawkesbury, Nouvelle-Écosse, Canada

latitude: 45-40N, longitude: 061-23W, altitude: 114 m

Observation

Le bulletin a été fait il y a 30 heures et 14 minutes, à 00:00 UTC
Vent 8 kt de est
Température 15°C
Humidité 88%
Pression 1023 hPa
Visibilité: 14.5 km
Nuages fragmentés à une hauteur de 20000 ft
Ciel couvert à une hauteur de 23000 ft

METAR: CYPD 210000Z AUTO 08008KT 9SM BKN200 OVC230 15/13 A3022 RMK SLP237

Heure: 03:14 (06:14 UTC)


TAF: absent

Observations et prévisions météorologiques de plus de 4000 aéroports (messages METAR et TAF).

Les stations disponibles sont représentées par des disques jaunes et rouges sur la carte.

Passer la souris dessus pour voir le nom de la station.

Cliquer dessus pour voir les observations et prévisions météorologiques.

Pour changer de carte: cliquez sur les boutons verts avec une croix noire pour zoomer, sur le bouton vert avec un tiret pour effectuer un zoom arrière, ou sur les flèches vertes pour les cartes adjacentes.


METAR-TAF: